Lusi, China
Current Conditions -  °F | °C
As of 2:30 PM on Saturday 20 Dec 2014 (Local Time) from ZSSS Reporting Station
Clear Clear  
Wind Chill: 43°   Ceiling: Unl
Heat Index: 48°   Visibility: 6mi
Dew Point: 23°   Wind: 11mph
Humidity: 37%   Direction: 360°N
Pressure: 30.3"   Gusts: NA
Location:  32.07°N, 121.6°E
Report Text: ZSSS 200630Z 36005MPS 320V030 CAVOK 09/M05 Q1026 NOSIG
Loading
Personal Weather Stations






























Interactive Weather Map New forecast layout! Learn more

10-Day Weather Forecast

Advertisements
Track Severe Weather on mobile